Big Change II — ZCEE1 — position and weather

sailwx.info

Track history (hours):
 
Tides and Currents Weather Stations Pressure Air Temp Water Temp Dewpoint Dewpoint Depression Visibility Wind Speed Wind Dir Waves Ship Positions

Big Change II

Last reported at 2017-Nov-28 17:08 UTC. Time now 2017-Dec-11 00:05 UTC.
Position N 28°28' W 016°15'.
Warning: this ship's position is 12 days out of date.

Length 33 m; draft 3.5 m.

Type: Pleasure craft. MMSI: 310611000.

Date/timePositionNaut miles runAvg speedWind from/ knotsBaromVisibWave heightAir tempDewpointWater temp
2017-Nov-28 17:08N 28°28' W 016°15'0 0.0
2017-Nov-28 17:00N 28°28' W 016°15'0 0.0
2017-Nov-28 15:50N 28°28' W 016°15'0 0.0
2017-Nov-28 15:00N 28°28' W 016°15'0 0.0
2017-Nov-28 14:30N 28°28' W 016°15'0 0.0
2017-Nov-28 13:59N 28°28' W 016°15'0 0.0
2017-Nov-28 13:30N 28°28' W 016°15'16 1.9
2017-Nov-28 05:01N 28°26' W 015°56'5 9.7
2017-Nov-28 04:30N 28°30' W 015°53'5 9.5
2017-Nov-28 04:00N 28°33' W 015°50'5 9.4
2017-Nov-28 03:30N 28°37' W 015°46'5 9.3
2017-Nov-28 03:00N 28°40' W 015°43'5 9.4
2017-Nov-28 02:30N 28°44' W 015°39'5 9.2
2017-Nov-28 02:00N 28°48' W 015°36'5 9.2
2017-Nov-28 01:30N 28°51' W 015°33'5 9.2
2017-Nov-28 01:00N 28°55' W 015°29'5 9.0
2017-Nov-28 00:30N 28°58' W 015°26'4 9.0
2017-Nov-28 00:00N 29°01' W 015°23'5 9.2
2017-Nov-27 23:30N 29°05' W 015°19'3 6.2
2017-Nov-27 23:00N 29°07' W 015°21'3 6.4
2017-Nov-27 22:30N 29°04' W 015°22'3 6.9
2017-Nov-27 22:00N 29°06' W 015°18'5 9.4
2017-Nov-27 21:30N 29°09' W 015°15'5 9.4
2017-Nov-27 21:00N 29°13' W 015°11'5 9.1
2017-Nov-27 20:30N 29°16' W 015°08'5 9.1
2017-Nov-27 20:00N 29°20' W 015°05'5 9.1
2017-Nov-27 19:30N 29°23' W 015°01'4 9.0
2017-Nov-27 19:00N 29°26' W 014°57'4 9.0
2017-Nov-27 18:30N 29°29' W 014°53'5 9.2
2017-Nov-27 18:00N 29°32' W 014°49'5 9.2
2017-Nov-27 17:30N 29°35' W 014°45'5 9.2
2017-Nov-27 17:00N 29°38' W 014°41'5 9.2
2017-Nov-27 16:27N 29°41' W 014°36'4 9.1
2017-Nov-27 16:00N 29°44' W 014°33'5 9.8
2017-Nov-27 15:31N 29°46' W 014°28'5 9.7
2017-Nov-27 15:00N 29°49' W 014°24'13 9.6
2017-Nov-27 13:42N 29°56' W 014°12'  
2017-Nov-19 21:08N 39°24' E 002°29'211.4
2017-Nov-19 21:00N 39°25' E 002°31'511.0
2017-Nov-19 20:30N 39°30' E 002°34'2 3.2
2017-Nov-19 20:00N 39°32' E 002°34'0 0.0
2017-Nov-19 19:30N 39°32' E 002°34'3 6.9
2017-Nov-19 19:00N 39°29' E 002°37'611.0
2017-Nov-19 18:30N 39°25' E 002°41'510.8
2017-Nov-19 18:00N 39°20' E 002°45'510.4
2017-Nov-19 17:30N 39°17' E 002°51'  
Track history (hours):
 
Tides and Currents Weather Stations Pressure Air Temp Water Temp Dewpoint Dewpoint Depression Visibility Wind Speed Wind Dir Waves Ship Positions

Big Change II

Last reported at 2017-Nov-28 17:08 UTC. Time now 2017-Dec-11 00:05 UTC.
Position N 28°28' W 016°15'.
Warning: this ship's position is 12 days out of date.

Length 33 m; draft 3.5 m.

Type: Pleasure craft. MMSI: 310611000.

Date/timePositionNaut miles runAvg speedWind from/ knotsBaromVisibWave heightAir tempDewpointWater temp
2017-Nov-28 17:08N 28°28' W 016°15'0 0.0
2017-Nov-28 17:00N 28°28' W 016°15'0 0.0
2017-Nov-28 15:50N 28°28' W 016°15'0 0.0
2017-Nov-28 15:00N 28°28' W 016°15'0 0.0
2017-Nov-28 14:30N 28°28' W 016°15'0 0.0
2017-Nov-28 13:59N 28°28' W 016°15'0 0.0
2017-Nov-28 13:30N 28°28' W 016°15'16 1.9
2017-Nov-28 05:01N 28°26' W 015°56'5 9.7
2017-Nov-28 04:30N 28°30' W 015°53'5 9.5
2017-Nov-28 04:00N 28°33' W 015°50'5 9.4
2017-Nov-28 03:30N 28°37' W 015°46'5 9.3
2017-Nov-28 03:00N 28°40' W 015°43'5 9.4
2017-Nov-28 02:30N 28°44' W 015°39'5 9.2
2017-Nov-28 02:00N 28°48' W 015°36'5 9.2
2017-Nov-28 01:30N 28°51' W 015°33'5 9.2
2017-Nov-28 01:00N 28°55' W 015°29'5 9.0
2017-Nov-28 00:30N 28°58' W 015°26'4 9.0
2017-Nov-28 00:00N 29°01' W 015°23'5 9.2
2017-Nov-27 23:30N 29°05' W 015°19'3 6.2
2017-Nov-27 23:00N 29°07' W 015°21'3 6.4
2017-Nov-27 22:30N 29°04' W 015°22'3 6.9
2017-Nov-27 22:00N 29°06' W 015°18'5 9.4
2017-Nov-27 21:30N 29°09' W 015°15'5 9.4
2017-Nov-27 21:00N 29°13' W 015°11'5 9.1
2017-Nov-27 20:30N 29°16' W 015°08'5 9.1
2017-Nov-27 20:00N 29°20' W 015°05'5 9.1
2017-Nov-27 19:30N 29°23' W 015°01'4 9.0
2017-Nov-27 19:00N 29°26' W 014°57'4 9.0
2017-Nov-27 18:30N 29°29' W 014°53'5 9.2
2017-Nov-27 18:00N 29°32' W 014°49'5 9.2
2017-Nov-27 17:30N 29°35' W 014°45'5 9.2
2017-Nov-27 17:00N 29°38' W 014°41'5 9.2
2017-Nov-27 16:27N 29°41' W 014°36'4 9.1
2017-Nov-27 16:00N 29°44' W 014°33'5 9.8
2017-Nov-27 15:31N 29°46' W 014°28'5 9.7
2017-Nov-27 15:00N 29°49' W 014°24'13 9.6
2017-Nov-27 13:42N 29°56' W 014°12'  
2017-Nov-19 21:08N 39°24' E 002°29'211.4
2017-Nov-19 21:00N 39°25' E 002°31'511.0
2017-Nov-19 20:30N 39°30' E 002°34'2 3.2
2017-Nov-19 20:00N 39°32' E 002°34'0 0.0
2017-Nov-19 19:30N 39°32' E 002°34'3 6.9
2017-Nov-19 19:00N 39°29' E 002°37'611.0
2017-Nov-19 18:30N 39°25' E 002°41'510.8
2017-Nov-19 18:00N 39°20' E 002°45'510.4
2017-Nov-19 17:30N 39°17' E 002°51'  

Dump ship's entire track history